sensor_id;sensor_type;location;lat;lon;timestamp;temperature;humidity
7248;DHT22;3665;51.034;13.642;2022-08-26T00:00:32;18.90;99.90
7248;DHT22;3665;51.034;13.642;2022-08-26T00:05:18;18.90;99.90
7248;DHT22;3665;51.034;13.642;2022-08-26T00:10:07;19.00;99.90
7248;DHT22;3665;51.034;13.642;2022-08-26T00:14:51;19.00;99.90
7248;DHT22;3665;51.034;13.642;2022-08-26T00:19:35;18.90;99.90
7248;DHT22;3665;51.034;13.642;2022-08-26T00:24:24;19.00;99.90
7248;DHT22;3665;51.034;13.642;2022-08-26T00:29:14;18.90;99.90
7248;DHT22;3665;51.034;13.642;2022-08-26T00:33:58;18.90;99.90
7248;DHT22;3665;51.034;13.642;2022-08-26T00:38:42;18.90;99.90
7248;DHT22;3665;51.034;13.642;2022-08-26T00:43:30;18.90;99.90
7248;DHT22;3665;51.034;13.642;2022-08-26T00:48:32;18.80;99.90
7248;DHT22;3665;51.034;13.642;2022-08-26T00:53:25;18.70;99.90
7248;DHT22;3665;51.034;13.642;2022-08-26T00:58:11;18.70;99.90
7248;DHT22;3665;51.034;13.642;2022-08-26T01:02:58;18.70;99.90
7248;DHT22;3665;51.034;13.642;2022-08-26T01:07:48;18.70;99.90
7248;DHT22;3665;51.034;13.642;2022-08-26T01:12:34;18.60;99.90
7248;DHT22;3665;51.034;13.642;2022-08-26T01:17:22;18.70;99.90
7248;DHT22;3665;51.034;13.642;2022-08-26T01:22:19;18.60;99.90
7248;DHT22;3665;51.034;13.642;2022-08-26T01:27:19;18.60;99.90
7248;DHT22;3665;51.034;13.642;2022-08-26T01:32:07;18.50;99.90
7248;DHT22;3665;51.034;13.642;2022-08-26T01:37:03;18.40;99.90
7248;DHT22;3665;51.034;13.642;2022-08-26T01:41:50;18.40;99.90
7248;DHT22;3665;51.034;13.642;2022-08-26T01:46:40;18.40;99.90
7248;DHT22;3665;51.034;13.642;2022-08-26T01:51:28;18.40;99.90
7248;DHT22;3665;51.034;13.642;2022-08-26T01:56:14;18.40;99.90
7248;DHT22;3665;51.034;13.642;2022-08-26T02:00:59;18.40;99.90
7248;DHT22;3665;51.034;13.642;2022-08-26T02:05:55;18.40;99.90
7248;DHT22;3665;51.034;13.642;2022-08-26T02:10:40;18.40;99.90
7248;DHT22;3665;51.034;13.642;2022-08-26T02:15:34;18.40;99.90
7248;DHT22;3665;51.034;13.642;2022-08-26T02:20:19;18.40;99.90
7248;DHT22;3665;51.034;13.642;2022-08-26T02:25:12;18.40;99.90
7248;DHT22;3665;51.034;13.642;2022-08-26T02:30:03;18.30;99.90
7248;DHT22;3665;51.034;13.642;2022-08-26T02:34:52;18.30;99.90
7248;DHT22;3665;51.034;13.642;2022-08-26T02:39:42;18.20;99.90
7248;DHT22;3665;51.034;13.642;2022-08-26T02:44:31;18.20;99.90
7248;DHT22;3665;51.034;13.642;2022-08-26T02:49:15;18.20;99.90
7248;DHT22;3665;51.034;13.642;2022-08-26T02:53:59;18.20;99.90
7248;DHT22;3665;51.034;13.642;2022-08-26T02:58:48;18.20;99.90
7248;DHT22;3665;51.034;13.642;2022-08-26T03:03:33;18.10;99.90
7248;DHT22;3665;51.034;13.642;2022-08-26T03:08:25;18.10;99.90
7248;DHT22;3665;51.034;13.642;2022-08-26T03:13:15;18.10;99.90
7248;DHT22;3665;51.034;13.642;2022-08-26T03:17:59;18.00;99.90
7248;DHT22;3665;51.034;13.642;2022-08-26T03:22:45;18.00;99.90
7248;DHT22;3665;51.034;13.642;2022-08-26T03:27:29;18.00;99.90
7248;DHT22;3665;51.034;13.642;2022-08-26T03:32:13;18.00;99.90
7248;DHT22;3665;51.034;13.642;2022-08-26T03:36:58;17.90;99.90
7248;DHT22;3665;51.034;13.642;2022-08-26T03:41:43;18.00;99.90
7248;DHT22;3665;51.034;13.642;2022-08-26T03:46:27;18.00;99.90
7248;DHT22;3665;51.034;13.642;2022-08-26T03:51:12;18.00;99.90
7248;DHT22;3665;51.034;13.642;2022-08-26T03:56:00;17.90;99.90
7248;DHT22;3665;51.034;13.642;2022-08-26T04:00:47;17.90;99.90
7248;DHT22;3665;51.034;13.642;2022-08-26T04:05:37;17.80;99.90
7248;DHT22;3665;51.034;13.642;2022-08-26T04:10:21;17.80;99.90
7248;DHT22;3665;51.034;13.642;2022-08-26T04:15:13;17.70;99.90
7248;DHT22;3665;51.034;13.642;2022-08-26T04:20:04;17.60;99.90
7248;DHT22;3665;51.034;13.642;2022-08-26T04:24:50;17.60;99.90
7248;DHT22;3665;51.034;13.642;2022-08-26T04:29:34;17.70;99.90
7248;DHT22;3665;51.034;13.642;2022-08-26T04:34:20;17.70;99.90
7248;DHT22;3665;51.034;13.642;2022-08-26T04:39:06;17.80;99.90
7248;DHT22;3665;51.034;13.642;2022-08-26T04:43:53;17.90;99.90
7248;DHT22;3665;51.034;13.642;2022-08-26T04:48:38;18.00;99.90
7248;DHT22;3665;51.034;13.642;2022-08-26T04:53:22;18.00;99.90
7248;DHT22;3665;51.034;13.642;2022-08-26T04:58:07;18.00;99.90
7248;DHT22;3665;51.034;13.642;2022-08-26T05:02:52;18.00;99.90
7248;DHT22;3665;51.034;13.642;2022-08-26T05:07:36;18.10;99.90
7248;DHT22;3665;51.034;13.642;2022-08-26T05:12:20;18.10;99.90
7248;DHT22;3665;51.034;13.642;2022-08-26T05:17:06;18.20;99.90
7248;DHT22;3665;51.034;13.642;2022-08-26T05:21:56;18.20;99.90
7248;DHT22;3665;51.034;13.642;2022-08-26T05:26:40;18.30;99.90
7248;DHT22;3665;51.034;13.642;2022-08-26T05:31:28;18.30;99.90
7248;DHT22;3665;51.034;13.642;2022-08-26T05:36:16;18.30;99.90
7248;DHT22;3665;51.034;13.642;2022-08-26T05:41:03;18.30;99.90
7248;DHT22;3665;51.034;13.642;2022-08-26T05:46:04;18.30;99.90
7248;DHT22;3665;51.034;13.642;2022-08-26T05:50:50;18.40;99.90
7248;DHT22;3665;51.034;13.642;2022-08-26T05:55:40;18.50;99.90
7248;DHT22;3665;51.034;13.642;2022-08-26T06:00:25;18.60;99.90
7248;DHT22;3665;51.034;13.642;2022-08-26T06:05:09;18.70;99.90
7248;DHT22;3665;51.034;13.642;2022-08-26T06:09:53;18.90;99.90
7248;DHT22;3665;51.034;13.642;2022-08-26T06:14:58;19.10;99.90
7248;DHT22;3665;51.034;13.642;2022-08-26T06:19:45;19.30;99.90
7248;DHT22;3665;51.034;13.642;2022-08-26T06:24:33;19.50;99.90
7248;DHT22;3665;51.034;13.642;2022-08-26T06:29:35;19.80;99.90
7248;DHT22;3665;51.034;13.642;2022-08-26T06:34:21;20.00;99.90
7248;DHT22;3665;51.034;13.642;2022-08-26T06:39:13;20.30;99.90
7248;DHT22;3665;51.034;13.642;2022-08-26T06:43:57;20.50;99.90
7248;DHT22;3665;51.034;13.642;2022-08-26T06:48:42;20.90;99.90
7248;DHT22;3665;51.034;13.642;2022-08-26T06:53:27;21.50;99.90
7248;DHT22;3665;51.034;13.642;2022-08-26T06:58:11;22.30;99.90
7248;DHT22;3665;51.034;13.642;2022-08-26T07:02:56;22.70;99.90
7248;DHT22;3665;51.034;13.642;2022-08-26T07:07:39;23.30;99.90
7248;DHT22;3665;51.034;13.642;2022-08-26T07:12:25;23.90;99.90
7248;DHT22;3665;51.034;13.642;2022-08-26T07:17:09;24.20;99.90
7248;DHT22;3665;51.034;13.642;2022-08-26T07:21:56;24.30;99.90
7248;DHT22;3665;51.034;13.642;2022-08-26T07:26:40;24.10;99.90
7248;DHT22;3665;51.034;13.642;2022-08-26T07:31:28;24.40;99.90
7248;DHT22;3665;51.034;13.642;2022-08-26T07:36:23;25.00;96.20
7248;DHT22;3665;51.034;13.642;2022-08-26T07:41:10;25.30;92.70
7248;DHT22;3665;51.034;13.642;2022-08-26T07:45:54;25.80;65.70
7248;DHT22;3665;51.034;13.642;2022-08-26T07:50:39;25.80;62.80
7248;DHT22;3665;51.034;13.642;2022-08-26T07:55:31;26.10;63.90
7248;DHT22;3665;51.034;13.642;2022-08-26T08:00:19;26.30;52.20
7248;DHT22;3665;51.034;13.642;2022-08-26T08:05:04;26.60;52.90
7248;DHT22;3665;51.034;13.642;2022-08-26T08:09:50;27.20;42.60
7248;DHT22;3665;51.034;13.642;2022-08-26T08:14:34;27.90;40.00
7248;DHT22;3665;51.034;13.642;2022-08-26T08:19:18;28.40;34.00
7248;DHT22;3665;51.034;13.642;2022-08-26T08:24:03;28.30;34.80
7248;DHT22;3665;51.034;13.642;2022-08-26T08:28:53;28.50;29.50
7248;DHT22;3665;51.034;13.642;2022-08-26T08:33:40;28.90;29.00
7248;DHT22;3665;51.034;13.642;2022-08-26T08:38:24;29.10;27.10
7248;DHT22;3665;51.034;13.642;2022-08-26T08:43:10;29.30;27.00
7248;DHT22;3665;51.034;13.642;2022-08-26T08:48:04;29.00;24.30
7248;DHT22;3665;51.034;13.642;2022-08-26T08:53:04;28.50;23.10
7248;DHT22;3665;51.034;13.642;2022-08-26T08:57:59;28.50;24.50
7248;DHT22;3665;51.034;13.642;2022-08-26T09:02:50;29.70;22.50
7248;DHT22;3665;51.034;13.642;2022-08-26T09:07:38;29.60;20.30
7248;DHT22;3665;51.034;13.642;2022-08-26T09:12:24;29.60;19.40
7248;DHT22;3665;51.034;13.642;2022-08-26T09:17:17;29.80;19.20
7248;DHT22;3665;51.034;13.642;2022-08-26T09:22:05;29.50;16.80
7248;DHT22;3665;51.034;13.642;2022-08-26T09:26:52;28.70;16.80
7248;DHT22;3665;51.034;13.642;2022-08-26T09:31:39;27.80;16.30
7248;DHT22;3665;51.034;13.642;2022-08-26T09:36:35;27.20;20.80
7248;DHT22;3665;51.034;13.642;2022-08-26T09:41:25;26.70;25.50
7248;DHT22;3665;51.034;13.642;2022-08-26T09:46:13;26.00;29.70
7248;DHT22;3665;51.034;13.642;2022-08-26T09:51:03;25.80;35.90
7248;DHT22;3665;51.034;13.642;2022-08-26T09:55:49;25.50;49.80
7248;DHT22;3665;51.034;13.642;2022-08-26T10:00:38;25.40;58.30
7248;DHT22;3665;51.034;13.642;2022-08-26T10:05:32;25.20;71.00
7248;DHT22;3665;51.034;13.642;2022-08-26T10:10:22;25.30;90.80
7248;DHT22;3665;51.034;13.642;2022-08-26T10:15:09;25.00;91.30
7248;DHT22;3665;51.034;13.642;2022-08-26T10:20:25;25.00;99.90
7248;DHT22;3665;51.034;13.642;2022-08-26T10:25:16;25.10;99.10
7248;DHT22;3665;51.034;13.642;2022-08-26T10:30:06;25.80;80.30
7248;DHT22;3665;51.034;13.642;2022-08-26T10:34:54;27.20;43.00
7248;DHT22;3665;51.034;13.642;2022-08-26T10:39:53;28.60;41.10
7248;DHT22;3665;51.034;13.642;2022-08-26T10:44:50;29.90;18.60
7248;DHT22;3665;51.034;13.642;2022-08-26T10:49:41;31.30;15.00
7248;DHT22;3665;51.034;13.642;2022-08-26T10:54:31;31.60;12.30
7248;DHT22;3665;51.034;13.642;2022-08-26T10:59:26;32.30;12.80
7248;DHT22;3665;51.034;13.642;2022-08-26T11:04:35;32.40;11.60
7248;DHT22;3665;51.034;13.642;2022-08-26T11:09:46;32.80;11.90
7248;DHT22;3665;51.034;13.642;2022-08-26T11:14:33;32.80;11.80
7248;DHT22;3665;51.034;13.642;2022-08-26T11:20:00;33.00;10.90
7248;DHT22;3665;51.034;13.642;2022-08-26T11:25:09;33.30;11.60
7248;DHT22;3665;51.034;13.642;2022-08-26T11:30:00;33.20;11.00
7248;DHT22;3665;51.034;13.642;2022-08-26T11:34:53;32.90;11.10
7248;DHT22;3665;51.034;13.642;2022-08-26T11:39:49;32.50;10.60
7248;DHT22;3665;51.034;13.642;2022-08-26T11:44:41;32.80;11.10
7248;DHT22;3665;51.034;13.642;2022-08-26T11:49:31;33.00;12.40
7248;DHT22;3665;51.034;13.642;2022-08-26T11:54:17;32.90;11.00
7248;DHT22;3665;51.034;13.642;2022-08-26T11:59:24;32.80;10.90
7248;DHT22;3665;51.034;13.642;2022-08-26T12:04:25;32.60;11.00
7248;DHT22;3665;51.034;13.642;2022-08-26T12:09:12;32.90;10.40
7248;DHT22;3665;51.034;13.642;2022-08-26T12:14:02;32.80;10.70
7248;DHT22;3665;51.034;13.642;2022-08-26T12:18:49;32.70;9.20
7248;DHT22;3665;51.034;13.642;2022-08-26T12:23:41;32.60;8.20
7248;DHT22;3665;51.034;13.642;2022-08-26T12:28:27;32.70;9.00
7248;DHT22;3665;51.034;13.642;2022-08-26T12:33:13;33.20;8.00
7248;DHT22;3665;51.034;13.642;2022-08-26T12:38:07;32.40;5.40
7248;DHT22;3665;51.034;13.642;2022-08-26T12:42:56;33.20;6.60
7248;DHT22;3665;51.034;13.642;2022-08-26T12:47:44;32.60;3.00
7248;DHT22;3665;51.034;13.642;2022-08-26T12:52:31;33.00;5.10
7248;DHT22;3665;51.034;13.642;2022-08-26T12:57:25;32.90;4.90
7248;DHT22;3665;51.034;13.642;2022-08-26T13:02:36;33.00;4.30
7248;DHT22;3665;51.034;13.642;2022-08-26T13:07:22;33.10;3.40
7248;DHT22;3665;51.034;13.642;2022-08-26T13:12:07;33.10;3.70
7248;DHT22;3665;51.034;13.642;2022-08-26T13:16:58;33.00;3.60
7248;DHT22;3665;51.034;13.642;2022-08-26T13:21:58;32.20;1.00
7248;DHT22;3665;51.034;13.642;2022-08-26T13:26:48;32.30;1.00
7248;DHT22;3665;51.034;13.642;2022-08-26T13:31:42;31.60;1.00
7248;DHT22;3665;51.034;13.642;2022-08-26T13:36:31;30.50;1.00
7248;DHT22;3665;51.034;13.642;2022-08-26T13:41:14;30.10;1.00
7248;DHT22;3665;51.034;13.642;2022-08-26T13:46:10;30.00;1.00
7248;DHT22;3665;51.034;13.642;2022-08-26T13:50:55;29.90;1.00
7248;DHT22;3665;51.034;13.642;2022-08-26T13:55:40;29.40;1.00
7248;DHT22;3665;51.034;13.642;2022-08-26T14:00:24;29.00;1.00
7248;DHT22;3665;51.034;13.642;2022-08-26T14:05:08;29.10;1.00
7248;DHT22;3665;51.034;13.642;2022-08-26T14:09:52;29.10;1.00
7248;DHT22;3665;51.034;13.642;2022-08-26T14:15:02;29.00;1.00
7248;DHT22;3665;51.034;13.642;2022-08-26T14:20:09;28.50;1.00
7248;DHT22;3665;51.034;13.642;2022-08-26T14:25:09;28.50;1.00
7248;DHT22;3665;51.034;13.642;2022-08-26T14:29:55;28.40;1.00
7248;DHT22;3665;51.034;13.642;2022-08-26T14:34:41;28.20;1.00
7248;DHT22;3665;51.034;13.642;2022-08-26T14:39:25;28.40;1.00
7248;DHT22;3665;51.034;13.642;2022-08-26T14:44:11;28.70;1.00
7248;DHT22;3665;51.034;13.642;2022-08-26T14:48:58;29.20;1.00
7248;DHT22;3665;51.034;13.642;2022-08-26T14:53:45;29.60;1.00
7248;DHT22;3665;51.034;13.642;2022-08-26T14:58:47;30.00;1.00
7248;DHT22;3665;51.034;13.642;2022-08-26T15:03:30;30.40;1.00
7248;DHT22;3665;51.034;13.642;2022-08-26T15:08:15;30.40;1.00
7248;DHT22;3665;51.034;13.642;2022-08-26T15:12:59;30.50;1.00
7248;DHT22;3665;51.034;13.642;2022-08-26T15:17:44;30.60;1.00
7248;DHT22;3665;51.034;13.642;2022-08-26T15:22:30;30.40;1.00
7248;DHT22;3665;51.034;13.642;2022-08-26T15:27:16;30.40;1.00
7248;DHT22;3665;51.034;13.642;2022-08-26T15:32:00;30.70;1.00
7248;DHT22;3665;51.034;13.642;2022-08-26T15:36:45;30.90;1.00
7248;DHT22;3665;51.034;13.642;2022-08-26T15:41:29;31.10;1.00
7248;DHT22;3665;51.034;13.642;2022-08-26T15:46:17;30.90;1.00
7248;DHT22;3665;51.034;13.642;2022-08-26T15:51:01;30.30;1.00
7248;DHT22;3665;51.034;13.642;2022-08-26T15:55:45;29.80;1.00
7248;DHT22;3665;51.034;13.642;2022-08-26T16:00:30;29.40;1.00
7248;DHT22;3665;51.034;13.642;2022-08-26T16:05:16;29.30;1.00
7248;DHT22;3665;51.034;13.642;2022-08-26T16:09:59;29.00;1.00
7248;DHT22;3665;51.034;13.642;2022-08-26T16:14:43;28.90;1.00
7248;DHT22;3665;51.034;13.642;2022-08-26T16:19:27;28.70;1.00
7248;DHT22;3665;51.034;13.642;2022-08-26T16:24:13;28.30;1.00
7248;DHT22;3665;51.034;13.642;2022-08-26T16:28:59;27.90;1.00
7248;DHT22;3665;51.034;13.642;2022-08-26T16:33:43;27.70;1.00
7248;DHT22;3665;51.034;13.642;2022-08-26T16:38:28;27.60;1.00
7248;DHT22;3665;51.034;13.642;2022-08-26T16:43:12;27.70;1.00
7248;DHT22;3665;51.034;13.642;2022-08-26T16:47:56;27.60;1.00
7248;DHT22;3665;51.034;13.642;2022-08-26T16:52:41;27.10;1.00
7248;DHT22;3665;51.034;13.642;2022-08-26T16:57:24;26.90;1.00
7248;DHT22;3665;51.034;13.642;2022-08-26T17:02:10;26.60;1.00
7248;DHT22;3665;51.034;13.642;2022-08-26T17:06:54;26.30;1.00
7248;DHT22;3665;51.034;13.642;2022-08-26T17:11:38;26.30;1.00
7248;DHT22;3665;51.034;13.642;2022-08-26T17:16:22;25.70;1.00
7248;DHT22;3665;51.034;13.642;2022-08-26T17:21:11;25.40;1.00
7248;DHT22;3665;51.034;13.642;2022-08-26T17:25:56;25.20;1.00
7248;DHT22;3665;51.034;13.642;2022-08-26T17:30:41;24.90;1.00
7248;DHT22;3665;51.034;13.642;2022-08-26T17:35:25;24.60;1.00
7248;DHT22;3665;51.034;13.642;2022-08-26T17:40:13;24.20;1.00
7248;DHT22;3665;51.034;13.642;2022-08-26T17:45:11;24.00;1.00
7248;DHT22;3665;51.034;13.642;2022-08-26T17:50:06;23.80;1.00
7248;DHT22;3665;51.034;13.642;2022-08-26T17:54:54;23.70;1.00
7248;DHT22;3665;51.034;13.642;2022-08-26T17:59:40;23.50;1.00
7248;DHT22;3665;51.034;13.642;2022-08-26T18:04:24;23.20;1.00
7248;DHT22;3665;51.034;13.642;2022-08-26T18:09:08;23.00;1.00
7248;DHT22;3665;51.034;13.642;2022-08-26T18:13:52;22.80;1.00
7248;DHT22;3665;51.034;13.642;2022-08-26T18:18:40;22.80;1.00
7248;DHT22;3665;51.034;13.642;2022-08-26T18:29:15;22.90;1.00
7248;DHT22;3665;51.034;13.642;2022-08-26T18:34:02;22.80;4.90
7248;DHT22;3665;51.034;13.642;2022-08-26T18:38:47;22.60;77.90
7248;DHT22;3665;51.034;13.642;2022-08-26T18:44:02;22.30;99.90
7248;DHT22;3665;51.034;13.642;2022-08-26T18:48:52;22.10;99.90
7248;DHT22;3665;51.034;13.642;2022-08-26T18:56:05;21.90;1.00
7248;DHT22;3665;51.034;13.642;2022-08-26T19:00:53;21.70;99.90
7248;DHT22;3665;51.034;13.642;2022-08-26T19:12:08;21.20;1.00
7248;DHT22;3665;51.034;13.642;2022-08-26T19:18:02;21.10;1.00
7248;DHT22;3665;51.034;13.642;2022-08-26T19:23:15;21.00;1.00
7248;DHT22;3665;51.034;13.642;2022-08-26T19:28:16;20.90;99.90
7248;DHT22;3665;51.034;13.642;2022-08-26T19:33:01;20.90;1.00
7248;DHT22;3665;51.034;13.642;2022-08-26T19:37:46;20.80;1.00
7248;DHT22;3665;51.034;13.642;2022-08-26T19:42:42;20.90;29.30
7248;DHT22;3665;51.034;13.642;2022-08-26T19:47:37;20.90;99.90
7248;DHT22;3665;51.034;13.642;2022-08-26T19:52:31;21.00;1.00
7248;DHT22;3665;51.034;13.642;2022-08-26T19:59:31;21.10;99.90
7248;DHT22;3665;51.034;13.642;2022-08-26T20:03:48;21.10;1.00
7248;DHT22;3665;51.034;13.642;2022-08-26T20:08:51;20.90;99.90
7248;DHT22;3665;51.034;13.642;2022-08-26T20:14:07;20.80;99.90
7248;DHT22;3665;51.034;13.642;2022-08-26T20:19:02;20.60;99.90
7248;DHT22;3665;51.034;13.642;2022-08-26T20:24:08;20.50;99.90
7248;DHT22;3665;51.034;13.642;2022-08-26T20:29:05;20.50;99.90
7248;DHT22;3665;51.034;13.642;2022-08-26T20:33:51;20.60;99.90
7248;DHT22;3665;51.034;13.642;2022-08-26T20:38:37;20.50;99.90
7248;DHT22;3665;51.034;13.642;2022-08-26T20:43:22;20.50;99.90
7248;DHT22;3665;51.034;13.642;2022-08-26T20:48:13;20.50;99.90
7248;DHT22;3665;51.034;13.642;2022-08-26T20:53:00;20.50;99.90
7248;DHT22;3665;51.034;13.642;2022-08-26T20:57:47;20.50;99.90
7248;DHT22;3665;51.034;13.642;2022-08-26T21:02:34;20.40;99.90
7248;DHT22;3665;51.034;13.642;2022-08-26T21:07:21;20.40;99.90
7248;DHT22;3665;51.034;13.642;2022-08-26T21:12:09;20.40;99.90
7248;DHT22;3665;51.034;13.642;2022-08-26T21:17:07;20.40;99.90
7248;DHT22;3665;51.034;13.642;2022-08-26T21:22:37;20.40;99.90
7248;DHT22;3665;51.034;13.642;2022-08-26T21:27:56;20.40;99.90
7248;DHT22;3665;51.034;13.642;2022-08-26T21:40:08;20.30;99.90
7248;DHT22;3665;51.034;13.642;2022-08-26T21:45:55;20.20;99.90
7248;DHT22;3665;51.034;13.642;2022-08-26T21:52:22;20.20;99.90
7248;DHT22;3665;51.034;13.642;2022-08-26T21:58:08;20.10;99.90
7248;DHT22;3665;51.034;13.642;2022-08-26T22:03:05;20.00;99.90
7248;DHT22;3665;51.034;13.642;2022-08-26T22:08:32;20.10;99.90
7248;DHT22;3665;51.034;13.642;2022-08-26T22:13:43;20.10;1.00
7248;DHT22;3665;51.034;13.642;2022-08-26T22:24:44;20.00;1.00
7248;DHT22;3665;51.034;13.642;2022-08-26T22:29:48;19.90;1.00
7248;DHT22;3665;51.034;13.642;2022-08-26T22:35:13;19.90;1.00
7248;DHT22;3665;51.034;13.642;2022-08-26T22:53:50;19.70;99.90
7248;DHT22;3665;51.034;13.642;2022-08-26T22:59:58;19.70;1.00
7248;DHT22;3665;51.034;13.642;2022-08-26T23:05:33;19.80;1.00
7248;DHT22;3665;51.034;13.642;2022-08-26T23:11:49;19.70;1.00
7248;DHT22;3665;51.034;13.642;2022-08-26T23:23:49;19.60;99.90
